Time;durP1;ratioP1;P1;durP2;ratioP2;P2;SDS_P1;SDS_P2;PMS_P1;PMS_P2;Temp;Humidity;BMP_temperature;BMP_pressure;BME280_temperature;BME280_humidity;BME280_pressure;Samples;Min_cycle;Max_cycle;Signal;HPM_P1;HPM_P2
2022/05/01 00:00:25;;;;;;;11.77;10.77;;;12.10;99.90;;;;;;5029646;28;20753;-81
2022/05/01 00:03:30;;;;;;;14.80;10.63;;;12.10;99.90;;;;;;5015585;28;20407;-81
2022/05/01 00:06:15;;;;;;;12.83;9.63;;;12.10;99.90;;;;;;5010107;28;20401;-81
2022/05/01 00:09:01;;;;;;;12.88;11.13;;;12.00;99.90;;;;;;5008873;28;20447;-81
2022/05/01 00:11:46;;;;;;;13.80;11.17;;;11.90;99.90;;;;;;4996301;28;20232;-80
2022/05/01 00:14:31;;;;;;;12.83;11.13;;;11.90;99.90;;;;;;5009500;28;20916;-81
2022/05/01 00:17:15;;;;;;;10.83;9.73;;;11.90;99.90;;;;;;4998789;28;20428;-82
2022/05/01 00:20:00;;;;;;;11.87;9.97;;;11.90;99.90;;;;;;5016659;28;20388;-82
2022/05/01 00:22:44;;;;;;;10.90;9.50;;;11.80;99.90;;;;;;5016052;28;20404;-81
2022/05/01 00:25:29;;;;;;;10.20;9.20;;;11.80;99.90;;;;;;5016583;28;20476;-81
2022/05/01 00:28:14;;;;;;;11.87;10.73;;;11.80;99.90;;;;;;5021372;28;20402;-80
2022/05/01 00:30:59;;;;;;;12.40;10.63;;;11.80;99.90;;;;;;5043341;28;20506;-81
2022/05/01 00:36:42;;;;;;;10.00;9.10;;;11.80;99.90;;;;;;5046291;28;20379;-81
2022/05/01 00:39:31;;;;;;;9.47;8.57;;;11.90;99.90;;;;;;5029339;28;20414;-80
2022/05/01 00:42:17;;;;;;;11.70;10.17;;;11.80;99.90;;;;;;5044168;28;20395;-81
2022/05/01 00:45:02;;;;;;;10.77;9.67;;;11.80;99.90;;;;;;5057975;28;20401;-81
2022/05/01 00:47:46;;;;;;;10.60;9.50;;;11.80;99.90;;;;;;5059239;28;20899;-81
2022/05/01 00:50:32;;;;;;;11.57;10.20;;;11.90;99.90;;;;;;5061777;28;20374;-80
2022/05/01 00:53:17;;;;;;;10.57;9.50;;;11.90;99.90;;;;;;5036412;28;20457;-79
2022/05/01 00:56:02;;;;;;;12.73;8.83;;;11.80;99.90;;;;;;5064183;28;20442;-78
2022/05/01 00:58:48;;;;;;;14.97;10.27;;;11.80;99.90;;;;;;5064136;28;20402;-78
2022/05/01 01:01:33;;;;;;;14.47;10.70;;;11.70;99.90;;;;;;5054731;28;20395;-81
2022/05/01 01:04:18;;;;;;;11.47;10.37;;;11.80;99.90;;;;;;5036247;28;20442;-78
2022/05/01 01:07:04;;;;;;;10.90;9.77;;;11.80;99.90;;;;;;5046250;28;20465;-82
2022/05/01 01:09:48;;;;;;;16.20;11.20;;;11.80;99.90;;;;;;5044294;28;20433;-82
2022/05/01 01:15:35;;;;;;;10.47;9.30;;;11.80;99.90;;;;;;5039265;28;20406;-80
2022/05/01 01:18:21;;;;;;;13.73;9.27;;;11.80;99.90;;;;;;5041285;28;20398;-81
2022/05/01 01:21:09;;;;;;;10.20;8.90;;;11.80;99.90;;;;;;5041623;28;20398;-81
2022/05/01 01:23:55;;;;;;;12.30;10.00;;;11.80;99.90;;;;;;5056163;28;20914;-80
2022/05/01 01:26:39;;;;;;;11.97;10.73;;;11.80;99.90;;;;;;5049002;28;20383;-81
2022/05/01 01:32:31;;;;;;;12.87;10.47;;;11.70;99.90;;;;;;5058522;28;20441;-79
2022/05/01 01:35:17;;;;;;;13.33;10.53;;;11.70;99.90;;;;;;5058839;28;20430;-77
2022/05/01 01:38:02;;;;;;;10.83;9.70;;;11.60;99.90;;;;;;5059318;28;20394;-78
2022/05/01 01:40:50;;;;;;;12.40;11.10;;;11.70;99.90;;;;;;5058623;28;20390;-78
2022/05/01 01:43:38;;;;;;;13.83;11.10;;;11.60;99.90;;;;;;5042677;28;20422;-81
2022/05/01 01:46:22;;;;;;;11.47;9.90;;;11.60;99.90;;;;;;5035112;28;20446;-81
2022/05/01 01:49:09;;;;;;;14.93;10.90;;;11.60;99.90;;;;;;5056439;28;20472;-79
2022/05/01 01:51:53;;;;;;;11.60;10.40;;;11.60;99.90;;;;;;5043162;28;20469;-77
2022/05/01 01:54:38;;;;;;;11.90;10.70;;;11.60;99.90;;;;;;5029258;28;20395;-81
2022/05/01 01:57:22;;;;;;;14.20;11.03;;;11.60;99.90;;;;;;5040034;28;20379;-81
2022/05/01 02:00:08;;;;;;;11.30;10.20;;;11.50;99.90;;;;;;5041076;28;20800;-80
2022/05/01 02:03:03;;;;;;;10.87;9.67;;;11.50;99.90;;;;;;5039741;28;20387;-81
2022/05/01 02:05:49;;;;;;;14.17;10.67;;;11.50;99.90;;;;;;5018887;28;20482;-80
2022/05/01 02:08:34;;;;;;;12.17;10.43;;;11.50;99.90;;;;;;5018424;28;20784;-81
2022/05/01 02:11:20;;;;;;;12.23;10.87;;;11.50;99.90;;;;;;5017661;28;20412;-81
2022/05/01 02:14:05;;;;;;;16.17;11.03;;;11.40;99.90;;;;;;5019526;28;20391;-80
2022/05/01 02:16:50;;;;;;;11.87;10.77;;;11.50;99.90;;;;;;5019063;28;20747;-80
2022/05/01 02:19:34;;;;;;;14.07;10.30;;;11.40;99.90;;;;;;5018960;28;20400;-80
2022/05/01 02:22:21;;;;;;;11.90;10.70;;;11.40;99.90;;;;;;5019054;28;20390;-81
2022/05/01 02:25:08;;;;;;;11.33;10.00;;;11.40;99.90;;;;;;5019739;28;20931;-81
2022/05/01 02:27:52;;;;;;;11.97;10.87;;;11.40;99.90;;;;;;5021013;28;20411;-77
2022/05/01 02:30:38;;;;;;;25.37;11.40;;;11.40;99.90;;;;;;5018942;28;20445;-81
2022/05/01 02:33:22;;;;;;;12.67;10.83;;;11.40;99.90;;;;;;5019068;28;20655;-81
2022/05/01 02:36:07;;;;;;;14.50;10.30;;;11.40;99.90;;;;;;5022613;28;20392;-80
2022/05/01 02:38:52;;;;;;;12.83;11.10;;;11.40;99.90;;;;;;5039657;28;20415;-80
2022/05/01 02:41:36;;;;;;;11.87;10.67;;;11.40;99.90;;;;;;5022939;28;20792;-80
2022/05/01 02:44:21;;;;;;;11.60;10.40;;;11.40;99.90;;;;;;5019659;28;20447;-82
2022/05/01 02:47:05;;;;;;;16.23;11.20;;;11.30;99.90;;;;;;5020414;28;20896;-82
2022/05/01 02:49:50;;;;;;;17.50;10.93;;;11.30;99.90;;;;;;5019873;28;20395;-82
2022/05/01 02:52:34;;;;;;;16.53;11.90;;;11.30;99.90;;;;;;5019748;28;20470;-82
2022/05/01 02:55:19;;;;;;;14.80;10.97;;;11.20;99.90;;;;;;5021952;28;20427;-82
2022/05/01 02:58:03;;;;;;;13.87;10.60;;;11.10;99.90;;;;;;5023862;28;20427;-81
2022/05/01 03:00:48;;;;;;;13.30;11.20;;;11.10;99.90;;;;;;5024461;28;20406;-82
2022/05/01 03:03:33;;;;;;;12.97;10.07;;;11.10;99.90;;;;;;5026164;28;20384;-82
2022/05/01 03:06:17;;;;;;;14.10;10.70;;;11.00;99.90;;;;;;5027313;28;20399;-81
2022/05/01 03:09:03;;;;;;;13.50;11.47;;;11.00;99.90;;;;;;5024485;28;20412;-82
2022/05/01 03:11:47;;;;;;;11.17;9.97;;;11.00;99.90;;;;;;5024017;28;20489;-81
2022/05/01 03:14:33;;;;;;;15.03;10.90;;;11.00;99.90;;;;;;5023246;28;20384;-82
2022/05/01 03:17:17;;;;;;;17.77;11.37;;;11.00;99.90;;;;;;5023377;28;20484;-81
2022/05/01 03:23:05;;;;;;;13.20;10.07;;;10.90;99.90;;;;;;5033666;28;20451;-81
2022/05/01 03:25:50;;;;;;;13.90;10.87;;;10.90;99.90;;;;;;5024239;28;20458;-81
2022/05/01 03:28:34;;;;;;;11.93;10.57;;;10.80;99.90;;;;;;5018468;28;20396;-82
2022/05/01 03:31:19;;;;;;;12.03;9.70;;;10.90;99.90;;;;;;5017823;28;20391;-82
2022/05/01 03:34:04;;;;;;;12.97;9.80;;;10.80;99.90;;;;;;5017645;28;20396;-81
2022/05/01 03:36:48;;;;;;;13.10;10.90;;;10.80;99.90;;;;;;5017907;28;20427;-81
2022/05/01 03:39:35;;;;;;;16.07;11.27;;;10.80;99.90;;;;;;5017607;28;20380;-82
2022/05/01 03:42:19;;;;;;;14.50;10.20;;;10.80;99.90;;;;;;5017310;28;20452;-82
2022/05/01 03:45:04;;;;;;;13.63;10.40;;;10.80;99.90;;;;;;5022267;28;20449;-81
2022/05/01 03:47:48;;;;;;;17.00;11.20;;;10.80;99.90;;;;;;5012284;28;20879;-80
2022/05/01 03:50:32;;;;;;;13.97;11.17;;;10.80;99.90;;;;;;5017353;28;20395;-81
2022/05/01 03:53:17;;;;;;;15.43;11.33;;;10.80;99.90;;;;;;5000435;28;20595;-81
2022/05/01 03:56:02;;;;;;;11.90;10.70;;;10.70;99.90;;;;;;5015046;28;20474;-81
2022/05/01 03:58:46;;;;;;;15.47;10.67;;;10.70;99.90;;;;;;5014727;28;20547;-81
2022/05/01 04:01:33;;;;;;;14.97;11.40;;;10.70;99.90;;;;;;5015206;28;20903;-80
2022/05/01 04:04:19;;;;;;;12.60;10.30;;;10.70;99.90;;;;;;5029427;28;20861;-82
2022/05/01 04:07:04;;;;;;;16.00;11.37;;;10.70;99.90;;;;;;5020446;28;20554;-81
2022/05/01 04:09:48;;;;;;;12.33;10.30;;;10.70;99.90;;;;;;5034303;28;20402;-82
2022/05/01 04:12:41;;;;;;;18.97;12.57;;;10.80;99.90;;;;;;5034881;28;20478;-81
2022/05/01 04:15:25;;;;;;;14.10;12.10;;;10.80;99.90;;;;;;5035806;28;20515;-82
2022/05/01 04:18:12;;;;;;;14.03;11.17;;;10.80;99.90;;;;;;5036652;28;20390;-80
2022/05/01 04:20:57;;;;;;;12.40;9.83;;;10.70;99.90;;;;;;5036170;28;20518;-82
2022/05/01 04:23:41;;;;;;;14.57;11.60;;;10.70;99.90;;;;;;5036717;28;20399;-82
2022/05/01 04:26:27;;;;;;;12.73;10.60;;;10.70;99.90;;;;;;5038062;28;20390;-81
2022/05/01 04:32:16;;;;;;;12.57;11.27;;;10.80;99.90;;;;;;5037428;28;20512;-80
2022/05/01 04:35:01;;;;;;;13.77;10.30;;;10.80;99.90;;;;;;5054540;28;20402;-80
2022/05/01 04:37:46;;;;;;;14.03;12.13;;;10.70;99.90;;;;;;5055890;28;20411;-81
2022/05/01 04:40:34;;;;;;;19.83;11.43;;;10.80;99.90;;;;;;5056332;28;20415;-81
2022/05/01 04:43:21;;;;;;;17.43;11.10;;;10.90;99.90;;;;;;5057338;28;20406;-81
2022/05/01 04:46:05;;;;;;;18.60;12.53;;;11.00;99.90;;;;;;5043167;28;20387;-81
2022/05/01 04:48:50;;;;;;;12.80;11.07;;;11.10;99.90;;;;;;5039058;28;20387;-82
2022/05/01 04:51:34;;;;;;;13.27;10.60;;;11.10;99.90;;;;;;5056351;28;20427;-78
2022/05/01 04:54:19;;;;;;;12.37;11.07;;;11.10;99.90;;;;;;5055966;28;20372;-78
2022/05/01 04:57:05;;;;;;;12.23;10.27;;;11.10;99.90;;;;;;5056345;28;20454;-78
2022/05/01 04:59:50;;;;;;;12.07;10.57;;;11.20;99.90;;;;;;5056804;28;20399;-77
2022/05/01 05:02:38;;;;;;;12.60;10.37;;;11.20;99.90;;;;;;5054652;28;20402;-81
2022/05/01 05:05:24;;;;;;;12.40;11.20;;;11.10;99.90;;;;;;5068444;28;20441;-78
2022/05/01 05:11:06;;;;;;;13.40;11.33;;;11.20;99.90;;;;;;5080257;28;20744;-78
2022/05/01 05:13:52;;;;;;;14.73;11.20;;;11.20;99.90;;;;;;5080050;28;20469;-78
2022/05/01 05:16:37;;;;;;;10.13;9.13;;;11.20;99.90;;;;;;5078255;28;20390;-81
2022/05/01 05:19:21;;;;;;;10.60;8.90;;;11.20;99.90;;;;;;5060684;28;20389;-82
2022/05/01 05:22:06;;;;;;;14.83;10.10;;;11.20;99.90;;;;;;5060821;28;20482;-81
2022/05/01 05:24:51;;;;;;;12.43;11.27;;;11.30;99.90;;;;;;5044967;28;20386;-81
2022/05/01 05:27:37;;;;;;;12.03;10.73;;;11.30;99.90;;;;;;5060195;28;20414;-81
2022/05/01 05:30:22;;;;;;;14.47;11.30;;;11.20;99.90;;;;;;5060190;28;20417;-80
2022/05/01 05:33:06;;;;;;;15.40;10.50;;;11.30;99.90;;;;;;5059802;28;20832;-81
2022/05/01 05:35:51;;;;;;;17.37;11.60;;;11.40;99.90;;;;;;5031381;28;20557;-80
2022/05/01 05:38:37;;;;;;;11.97;10.57;;;11.50;99.90;;;;;;5063019;28;20382;-82
2022/05/01 05:41:22;;;;;;;14.17;10.20;;;11.30;99.90;;;;;;5060883;28;20382;-82
2022/05/01 05:44:07;;;;;;;13.53;9.90;;;11.30;99.90;;;;;;5064167;28;20489;-81
2022/05/01 05:46:51;;;;;;;17.77;11.10;;;11.00;99.90;;;;;;5059077;28;20476;-81
2022/05/01 05:49:36;;;;;;;21.93;11.87;;;10.70;99.90;;;;;;5059693;28;20390;-82
2022/05/01 05:52:21;;;;;;;22.43;11.10;;;10.90;99.90;;;;;;5059486;28;20587;-82
2022/05/01 05:55:06;;;;;;;11.83;10.60;;;10.80;99.90;;;;;;5044708;28;20480;-80
2022/05/01 05:57:51;;;;;;;11.50;9.87;;;10.90;99.90;;;;;;5069198;28;20390;-82
2022/05/01 06:00:36;;;;;;;12.27;9.60;;;10.80;99.90;;;;;;5076941;28;20381;-81
2022/05/01 06:03:20;;;;;;;11.70;10.50;;;11.00;99.90;;;;;;5060052;28;20389;-81
2022/05/01 06:06:06;;;;;;;15.33;10.43;;;11.10;99.90;;;;;;5057520;28;20492;-82
2022/05/01 06:08:52;;;;;;;13.13;10.27;;;11.10;99.90;;;;;;5043897;28;20472;-81
2022/05/01 06:11:37;;;;;;;21.97;11.80;;;11.10;99.90;;;;;;5044231;28;20463;-81
2022/05/01 06:14:21;;;;;;;12.47;10.67;;;11.20;99.90;;;;;;5059045;28;20389;-81
2022/05/01 06:17:08;;;;;;;13.50;9.00;;;11.20;99.90;;;;;;5059163;28;20435;-81
2022/05/01 06:19:53;;;;;;;12.52;10.63;;;11.20;99.90;;;;;;5059107;28;20405;-81
2022/05/01 06:22:37;;;;;;;12.23;10.53;;;11.50;99.90;;;;;;5058903;28;20201;-81
2022/05/01 06:25:22;;;;;;;14.37;9.87;;;11.70;99.90;;;;;;5058722;28;20385;-81
2022/05/01 06:28:06;;;;;;;12.00;8.43;;;11.60;99.90;;;;;;5058966;28;20475;-81
2022/05/01 06:30:52;;;;;;;11.90;10.27;;;11.70;99.90;;;;;;5058870;28;20409;-81
2022/05/01 06:33:39;;;;;;;15.03;11.37;;;11.90;99.90;;;;;;5043568;28;20822;-81
2022/05/01 06:36:24;;;;;;;12.00;10.07;;;12.00;99.90;;;;;;5058966;28;20398;-82
2022/05/01 06:39:11;;;;;;;14.20;10.20;;;11.80;99.90;;;;;;5059379;28;20374;-80
2022/05/01 06:41:56;;;;;;;11.73;10.53;;;12.10;99.90;;;;;;5043336;28;20401;-80
2022/05/01 06:44:40;;;;;;;9.73;8.73;;;12.20;99.90;;;;;;5059140;28;20465;-81
2022/05/01 06:47:25;;;;;;;14.00;10.40;;;12.30;99.90;;;;;;5058661;28;20497;-81
2022/05/01 06:50:09;;;;;;;12.87;11.03;;;12.20;99.90;;;;;;5058395;28;20433;-81
2022/05/01 06:52:54;;;;;;;12.97;10.37;;;12.40;99.90;;;;;;5043193;28;20449;-81
2022/05/01 06:55:39;;;;;;;13.57;10.40;;;12.50;99.90;;;;;;5058339;28;20437;-81
2022/05/01 06:58:26;;;;;;;13.97;9.77;;;12.20;99.90;;;;;;5053412;28;20382;-79
2022/05/01 07:01:10;;;;;;;17.13;10.73;;;12.40;99.90;;;;;;5060525;28;20382;-81
2022/05/01 07:03:55;;;;;;;14.40;9.00;;;12.30;99.90;;;;;;5076534;28;20528;-80
2022/05/01 07:06:40;;;;;;;11.93;8.90;;;12.60;99.90;;;;;;5076606;28;20393;-80
2022/05/01 07:09:25;;;;;;;13.23;10.57;;;12.60;99.90;;;;;;5068839;28;20746;-82
2022/05/01 07:12:11;;;;;;;11.87;8.90;;;12.60;99.90;;;;;;5058586;28;20445;-82
2022/05/01 07:14:55;;;;;;;17.03;10.13;;;12.60;99.90;;;;;;5015902;28;20774;-82
2022/05/01 07:17:40;;;;;;;16.73;9.43;;;12.50;99.90;;;;;;5074026;28;20394;-81
2022/05/01 07:20:25;;;;;;;13.20;10.10;;;12.40;99.90;;;;;;5062287;28;20449;-80
2022/05/01 07:23:09;;;;;;;11.27;9.33;;;12.80;99.90;;;;;;5077720;28;20458;-81
2022/05/01 07:25:53;;;;;;;14.70;9.90;;;12.70;99.90;;;;;;5072584;28;20497;-81
2022/05/01 07:28:39;;;;;;;14.03;10.70;;;12.70;99.90;;;;;;5045402;28;20382;-82
2022/05/01 07:31:24;;;;;;;14.30;9.27;;;13.00;99.90;;;;;;5058806;28;20398;-82
2022/05/01 07:34:10;;;;;;;10.60;9.60;;;13.10;99.90;;;;;;5058702;28;20378;-81
2022/05/01 07:36:54;;;;;;;12.67;8.80;;;13.40;99.90;;;;;;5059133;28;20509;-81
2022/05/01 07:39:39;;;;;;;16.50;10.23;;;13.50;99.90;;;;;;5058346;28;20569;-81
2022/05/01 07:42:24;;;;;;;11.30;10.30;;;13.60;99.90;;;;;;5028538;28;20417;-80
2022/05/01 07:45:09;;;;;;;10.67;8.80;;;13.70;99.90;;;;;;5057556;28;20378;-82
2022/05/01 07:47:54;;;;;;;13.97;10.33;;;13.70;99.90;;;;;;5057077;28;20437;-79
2022/05/01 07:50:39;;;;;;;10.17;9.00;;;13.80;99.90;;;;;;5057550;28;20386;-82
2022/05/01 07:53:23;;;;;;;14.93;9.10;;;13.90;99.90;;;;;;5057921;28;20947;-80
2022/05/01 07:56:08;;;;;;;10.27;9.07;;;13.90;99.90;;;;;;5057633;28;20445;-80
2022/05/01 07:58:53;;;;;;;16.00;10.33;;;13.80;99.90;;;;;;5058028;28;20398;-81
2022/05/01 08:01:39;;;;;;;12.17;9.83;;;13.40;99.90;;;;;;5042665;28;20401;-81
2022/05/01 08:04:30;;;;;;;10.30;9.17;;;13.40;99.90;;;;;;5046459;28;20453;-79
2022/05/01 08:07:15;;;;;;;20.70;10.33;;;13.50;99.90;;;;;;5064252;28;20378;-79
2022/05/01 08:09:59;;;;;;;11.77;9.40;;;13.80;99.90;;;;;;5055021;28;20401;-82
2022/05/01 08:12:44;;;;;;;14.63;11.27;;;14.20;99.90;;;;;;5070218;28;20444;-82
2022/05/01 08:15:28;;;;;;;11.10;9.90;;;14.50;99.90;;;;;;5056611;28;20413;-81
2022/05/01 08:21:16;;;;;;;13.33;10.13;;;14.70;99.90;;;;;;5070342;28;20734;-82
2022/05/01 08:24:00;;;;;;;13.00;10.57;;;14.90;99.90;;;;;;5071531;28;20433;-82
2022/05/01 08:26:48;;;;;;;13.40;11.10;;;14.90;99.90;;;;;;5073228;28;20405;-79
2022/05/01 08:29:33;;;;;;;12.70;10.03;;;15.00;99.90;;;;;;5058808;28;20448;-82
2022/05/01 08:32:18;;;;;;;14.10;10.87;;;14.90;99.90;;;;;;5072704;28;20435;-82
2022/05/01 08:35:03;;;;;;;11.97;10.73;;;14.90;99.90;;;;;;5073864;28;20374;-79
2022/05/01 08:37:47;;;;;;;13.10;10.60;;;15.20;99.90;;;;;;5074112;28;20440;-82
2022/05/01 08:40:32;;;;;;;11.57;10.37;;;15.00;99.90;;;;;;5063768;28;20374;-80
2022/05/01 08:43:19;;;;;;;15.13;9.93;;;14.70;99.90;;;;;;5078198;28;20440;-81
2022/05/01 08:46:34;;;;;;;12.07;10.67;;;15.30;99.90;;;;;;5077141;28;20394;-80
2022/05/01 08:49:21;;;;;;;16.77;11.30;;;15.60;99.90;;;;;;5076287;28;20386;-80
2022/05/01 08:52:08;;;;;;;15.03;11.50;;;15.80;99.90;;;;;;5078653;28;20436;-79
2022/05/01 08:54:53;;;;;;;11.77;10.33;;;14.80;99.90;;;;;;5078081;28;20444;-80
2022/05/01 08:57:39;;;;;;;17.13;10.43;;;14.70;99.90;;;;;;5079480;28;20425;-80
2022/05/01 09:00:25;;;;;;;15.13;10.23;;;14.20;99.90;;;;;;5080365;28;20393;-78
2022/05/01 09:03:13;;;;;;;13.30;10.77;;;14.20;99.90;;;;;;5080150;28;20398;-79
2022/05/01 09:05:58;;;;;;;13.13;11.10;;;14.50;99.90;;;;;;5079274;28;20476;-78
2022/05/01 09:08:42;;;;;;;13.63;9.93;;;15.00;99.90;;;;;;5075257;28;20406;-80
2022/05/01 09:14:31;;;;;;;16.53;11.40;;;15.90;99.90;;;;;;5071316;28;20738;-79
2022/05/01 09:17:23;;;;;;;10.43;9.40;;;16.00;99.90;;;;;;5072833;28;20397;-81
2022/05/01 09:20:12;;;;;;;24.10;13.23;;;16.30;99.90;;;;;;5070529;28;20795;-79
2022/05/01 09:22:58;;;;;;;12.10;10.50;;;16.40;99.90;;;;;;5056550;28;20443;-82
2022/05/01 09:25:43;;;;;;;18.03;11.73;;;16.60;99.90;;;;;;5069778;28;20394;-81
2022/05/01 09:28:28;;;;;;;11.80;10.60;;;16.50;99.90;;;;;;5057382;28;20433;-80
2022/05/01 09:31:13;;;;;;;21.27;13.67;;;16.40;99.90;;;;;;5066891;28;20432;-79
2022/05/01 09:34:20;;;;;;;18.53;11.97;;;16.10;99.90;;;;;;5049294;28;20497;-83
2022/05/01 09:37:19;;;;;;;13.60;11.97;;;15.60;99.90;;;;;;5051588;28;20398;-80
2022/05/01 09:40:04;;;;;;;16.30;10.33;;;15.70;99.90;;;;;;5030868;28;20483;-80
2022/05/01 09:42:48;;;;;;;14.00;11.30;;;15.90;99.90;;;;;;5027191;28;20398;-82
2022/05/01 09:45:33;;;;;;;12.60;10.47;;;16.10;99.90;;;;;;5040945;28;20422;-81
2022/05/01 09:48:20;;;;;;;16.20;12.13;;;16.50;99.90;;;;;;5040668;28;20403;-82
2022/05/01 09:51:19;;;;;;;14.47;11.63;;;16.90;99.90;;;;;;5026842;28;20474;-82
2022/05/01 09:54:06;;;;;;;17.37;12.40;;;17.20;99.90;;;;;;5028174;28;20398;-82
2022/05/01 09:56:52;;;;;;;16.87;12.83;;;16.80;99.90;;;;;;5025843;28;20962;-80
2022/05/01 09:59:51;;;;;;;14.90;13.10;;;16.40;99.90;;;;;;5039098;28;20382;-82
2022/05/01 10:02:36;;;;;;;15.03;11.30;;;15.90;99.90;;;;;;5039101;28;20957;-81
2022/05/01 10:05:20;;;;;;;14.10;12.53;;;16.00;99.90;;;;;;5038933;28;20438;-80
2022/05/01 10:08:05;;;;;;;22.03;13.07;;;16.80;99.90;;;;;;5039330;28;20479;-81
2022/05/01 10:10:57;;;;;;;13.27;11.33;;;17.10;99.90;;;;;;5047627;28;20413;-80
2022/05/01 10:13:43;;;;;;;13.67;12.47;;;17.50;99.90;;;;;;5063525;28;20445;-81
2022/05/01 10:16:28;;;;;;;13.93;11.83;;;17.20;99.90;;;;;;5065594;28;20516;-82
2022/05/01 10:19:15;;;;;;;14.07;12.67;;;16.40;99.90;;;;;;5065208;28;20740;-82
2022/05/01 10:22:00;;;;;;;19.00;13.07;;;16.40;99.90;;;;;;5065344;28;20394;-82
2022/05/01 10:24:44;;;;;;;20.93;12.70;;;16.40;99.90;;;;;;5063644;28;20398;-83
2022/05/01 10:27:49;;;;;;;15.10;13.50;;;16.80;99.90;;;;;;5065104;28;20413;-83
2022/05/01 10:34:02;;;;;;;13.40;12.10;;;16.50;99.90;;;;;;5065635;28;20547;-84
2022/05/01 10:37:12;;;;;;;13.00;11.77;;;17.00;99.90;;;;;;5065261;28;20424;-82
2022/05/01 10:40:00;;;;;;;13.70;12.17;;;17.60;99.90;;;;;;5065122;28;20497;-83
2022/05/01 10:42:46;;;;;;;15.93;12.63;;;18.40;99.90;;;;;;5064030;28;20425;-84
2022/05/01 10:45:44;;;;;;;16.53;12.60;;;18.80;99.90;;;;;;5065674;28;20394;-84
2022/05/01 10:48:33;;;;;;;13.80;11.77;;;18.90;99.90;;;;;;5066759;28;20390;-84
2022/05/01 10:51:45;;;;;;;14.53;12.23;;;19.10;99.90;;;;;;5065776;28;20412;-80
2022/05/01 10:54:32;;;;;;;14.40;12.90;;;19.50;99.90;;;;;;5066133;28;20441;-82
2022/05/01 10:57:18;;;;;;;12.37;11.17;;;19.70;99.90;;;;;;5065345;28;20894;-82
2022/05/01 11:00:10;;;;;;;12.33;11.17;;;19.90;99.90;;;;;;5063841;28;20402;-81
2022/05/01 11:02:56;;;;;;;13.80;10.87;;;20.10;99.90;;;;;;5064083;28;20390;-83
2022/05/01 11:05:43;;;;;;;15.70;11.87;;;20.40;99.90;;;;;;5064241;28;20535;-83
2022/05/01 11:08:33;;;;;;;14.33;12.80;;;20.10;99.90;;;;;;5064736;28;20390;-81
2022/05/01 11:11:20;;;;;;;13.20;11.90;;;19.70;99.90;;;;;;5064638;28;20816;-81
2022/05/01 11:14:04;;;;;;;15.50;11.80;;;19.60;99.90;;;;;;5064260;28;20800;-84
2022/05/01 11:16:52;;;;;;;16.37;12.50;;;19.30;99.90;;;;;;5063324;28;20413;-82
2022/05/01 11:19:45;;;;;;;14.57;11.23;;;19.40;99.90;;;;;;5064266;28;20391;-83
2022/05/01 11:22:31;;;;;;;14.07;12.67;;;19.20;99.90;;;;;;5064788;28;20394;-83
2022/05/01 11:25:18;;;;;;;13.30;10.90;;;19.00;99.90;;;;;;5034736;28;20508;-81
2022/05/01 11:28:02;;;;;;;13.80;11.67;;;18.70;99.90;;;;;;5070204;28;20401;-81
2022/05/01 11:31:28;;;;;;;13.73;12.33;;;18.00;99.90;;;;;;5045616;28;20405;-84
2022/05/01 11:34:36;;;;;;;14.10;12.60;;;18.20;99.90;;;;;;5026817;28;20518;-83
2022/05/01 11:37:58;;;;;;;14.90;12.10;;;17.90;99.90;;;;;;5040017;28;20437;-81
2022/05/01 11:40:57;;;;;;;14.23;11.73;;;17.60;99.90;;;;;;5015464;28;20465;-81
2022/05/01 11:43:41;;;;;;;13.40;12.03;;;17.70;99.90;;;;;;5008475;28;20401;-83
2022/05/01 11:46:26;;;;;;;14.67;13.17;;;17.60;99.90;;;;;;5010556;28;20940;-82
2022/05/01 11:49:11;;;;;;;14.90;12.77;;;17.60;99.90;;;;;;5009350;28;20433;-81
2022/05/01 11:51:58;;;;;;;13.57;12.27;;;17.50;99.90;;;;;;5011823;28;20491;-79
2022/05/01 11:54:53;;;;;;;14.93;12.87;;;17.40;99.90;;;;;;5012864;28;20473;-81
2022/05/01 12:04:28;;;;;;;16.00;12.17;;;17.30;99.90;;;;;;5014191;28;20424;-80
2022/05/01 12:07:15;;;;;;;11.83;10.63;;;17.20;99.90;;;;;;5000763;28;20455;-82
2022/05/01 12:10:00;;;;;;;13.33;11.27;;;17.20;99.90;;;;;;5009952;28;20428;-80
2022/05/01 12:12:44;;;;;;;16.27;12.37;;;17.10;99.90;;;;;;5028956;28;21061;-82
2022/05/01 12:15:29;;;;;;;13.17;11.93;;;17.10;99.90;;;;;;5028935;28;20805;-82
2022/05/01 12:18:14;;;;;;;15.93;11.00;;;16.80;99.90;;;;;;5025947;28;20415;-82
2022/05/01 12:20:59;;;;;;;10.47;9.50;;;16.80;99.90;;;;;;5027635;28;20546;-80
2022/05/01 12:23:47;;;;;;;13.70;12.33;;;17.00;99.90;;;;;;5016576;28;20419;-81
2022/05/01 12:26:36;;;;;;;11.57;10.37;;;17.00;99.90;;;;;;5029149;28;20404;-81
2022/05/01 12:29:21;;;;;;;11.37;10.37;;;17.20;99.90;;;;;;5015170;28;20623;-81
2022/05/01 12:32:09;;;;;;;11.70;10.50;;;17.20;99.90;;;;;;5013874;28;20540;-82
2022/05/01 12:35:13;;;;;;;12.23;10.80;;;17.10;99.90;;;;;;5024259;28;20442;-81
2022/05/01 12:38:00;;;;;;;12.73;11.37;;;17.30;99.90;;;;;;5027296;28;20419;-81
2022/05/01 12:43:51;;;;;;;12.77;10.60;;;17.60;99.90;;;;;;5028866;28;20419;-82
2022/05/01 12:46:39;;;;;;;11.40;10.30;;;17.70;99.90;;;;;;5029035;28;20488;-83
2022/05/01 12:49:26;;;;;;;11.20;10.10;;;17.80;99.90;;;;;;5014977;28;20431;-79
2022/05/01 12:52:30;;;;;;;10.50;9.40;;;17.50;99.90;;;;;;5004194;28;20459;-80
2022/05/01 12:55:33;;;;;;;12.60;10.40;;;17.60;99.90;;;;;;5006448;28;20434;-81
2022/05/01 12:58:32;;;;;;;14.50;9.67;;;17.50;99.90;;;;;;4980839;28;20436;-79
2022/05/01 13:01:27;;;;;;;8.50;7.70;;;17.40;99.90;;;;;;4993618;28;20471;-81
2022/05/01 13:04:21;;;;;;;12.00;10.13;;;17.50;99.90;;;;;;4970710;28;20544;-79
2022/05/01 13:07:06;;;;;;;9.30;8.47;;;17.50;99.90;;;;;;5002298;28;20401;-80
2022/05/01 13:09:51;;;;;;;9.93;8.97;;;17.40;99.90;;;;;;5000722;28;20393;-82
2022/05/01 13:12:35;;;;;;;11.40;8.63;;;17.40;99.90;;;;;;5001054;28;20452;-82
2022/05/01 13:15:37;;;;;;;8.87;7.97;;;17.50;99.90;;;;;;4990305;28;20439;-80
2022/05/01 13:18:22;;;;;;;12.43;8.67;;;17.40;99.90;;;;;;5004427;28;20465;-81
2022/05/01 13:21:08;;;;;;;9.57;8.73;;;17.40;99.90;;;;;;5004951;28;20473;-82
2022/05/01 13:23:58;;;;;;;10.00;8.97;;;17.30;99.90;;;;;;5001582;28;20483;-82
2022/05/01 13:26:43;;;;;;;9.60;8.60;;;17.30;99.90;;;;;;4988143;28;20409;-82
2022/05/01 13:29:31;;;;;;;10.40;8.25;;;17.20;99.90;;;;;;5019687;28;20397;-81
2022/05/01 13:32:17;;;;;;;9.27;7.77;;;17.10;99.90;;;;;;5042520;28;20540;-82
2022/05/01 13:35:02;;;;;;;10.17;8.87;;;17.10;99.90;;;;;;5042706;28;20446;-80
2022/05/01 13:37:46;;;;;;;9.10;8.00;;;17.10;99.90;;;;;;5043394;28;20427;-83
2022/05/01 13:46:26;;;;;;;10.83;8.97;;;16.60;99.90;;;;;;5044621;28;20736;-82
2022/05/01 13:49:11;;;;;;;14.83;8.67;;;16.70;99.90;;;;;;5048668;28;20390;-77
2022/05/01 13:51:56;;;;;;;15.63;9.23;;;16.90;99.90;;;;;;5049618;28;20390;-79
2022/05/01 13:54:43;;;;;;;10.37;9.27;;;16.90;99.90;;;;;;5048897;28;20464;-80
2022/05/01 13:57:28;;;;;;;12.70;7.47;;;17.00;99.90;;;;;;5046216;28;20448;-82
2022/05/01 14:00:13;;;;;;;8.30;7.20;;;17.00;99.90;;;;;;5013902;28;20926;-82
2022/05/01 14:02:58;;;;;;;10.43;9.47;;;17.10;99.90;;;;;;5042228;28;20415;-81
2022/05/01 14:05:43;;;;;;;12.17;9.87;;;17.00;99.90;;;;;;5041440;28;20473;-82
2022/05/01 14:08:27;;;;;;;11.63;10.13;;;17.00;99.90;;;;;;5042518;28;20744;-80
2022/05/01 14:11:12;;;;;;;11.03;9.60;;;17.10;99.90;;;;;;5042981;28;20389;-82
2022/05/01 14:13:57;;;;;;;10.73;9.63;;;17.00;99.90;;;;;;5042924;28;20470;-81
2022/05/01 14:16:42;;;;;;;11.30;9.30;;;16.80;99.90;;;;;;5042228;28;20395;-80
2022/05/01 14:19:29;;;;;;;9.93;9.13;;;16.90;99.90;;;;;;5043469;28;20390;-83
2022/05/01 14:22:15;;;;;;;12.50;9.60;;;16.90;99.90;;;;;;5042727;28;20417;-80
2022/05/01 14:25:00;;;;;;;12.10;10.10;;;16.90;99.90;;;;;;5040995;28;20733;-82
2022/05/01 14:27:44;;;;;;;11.50;10.30;;;16.90;99.90;;;;;;5028127;28;20398;-82
2022/05/01 14:30:31;;;;;;;11.03;9.33;;;17.00;99.90;;;;;;5043145;28;20391;-82
2022/05/01 14:33:30;;;;;;;9.33;8.53;;;16.80;99.90;;;;;;5043124;28;20449;-81
2022/05/01 14:36:28;;;;;;;17.50;10.60;;;16.90;99.90;;;;;;5042739;28;20462;-83
2022/05/01 14:39:13;;;;;;;13.07;9.50;;;17.00;99.90;;;;;;5018659;28;20438;-82
2022/05/01 14:41:59;;;;;;;11.23;9.87;;;17.10;99.90;;;;;;5049977;28;20471;-79
2022/05/01 14:44:51;;;;;;;10.57;9.60;;;17.10;99.90;;;;;;5050584;28;20457;-82
2022/05/01 14:47:56;;;;;;;11.40;10.30;;;17.00;99.90;;;;;;5053338;28;20422;-80
2022/05/01 14:50:44;;;;;;;10.30;9.40;;;16.90;99.90;;;;;;5053042;28;20379;-81
2022/05/01 14:53:29;;;;;;;11.80;9.40;;;17.00;99.90;;;;;;5054173;28;20453;-81